createdAt,value
2023-02-03T00:00:40.241Z,24.82
2023-02-03T00:01:40.340Z,24.82
2023-02-03T00:02:40.854Z,24.84
2023-02-03T00:03:40.195Z,24.82
2023-02-03T00:04:40.208Z,24.77
2023-02-03T00:05:40.167Z,24.69
2023-02-03T00:06:40.152Z,24.66
2023-02-03T00:07:40.185Z,24.50
2023-02-03T00:08:40.245Z,24.34
2023-02-03T00:09:40.330Z,24.29
2023-02-03T00:10:40.145Z,24.28
2023-02-03T00:11:40.090Z,24.18
2023-02-03T00:12:40.093Z,24.13
2023-02-03T00:13:40.127Z,24.13
2023-02-03T00:14:40.156Z,24.11
2023-02-03T00:15:40.756Z,24.13
2023-02-03T00:16:40.161Z,24.19
2023-02-03T00:17:40.106Z,24.22
2023-02-03T00:18:40.082Z,24.24
2023-02-03T00:19:40.089Z,24.26
2023-02-03T00:20:40.245Z,24.25
2023-02-03T00:21:40.108Z,24.14
2023-02-03T00:22:40.110Z,24.07
2023-02-03T00:23:40.150Z,24.09
2023-02-03T00:24:39.975Z,24.10
2023-02-03T00:25:40.029Z,24.13
2023-02-03T00:26:40.045Z,24.14
2023-02-03T00:27:40.403Z,24.14
2023-02-03T00:28:40.099Z,24.13
2023-02-03T00:29:39.904Z,24.11
2023-02-03T00:30:39.907Z,24.11
2023-02-03T00:31:40.040Z,24.14
2023-02-03T00:32:40.019Z,24.14
2023-02-03T00:33:40.005Z,24.16
2023-02-03T00:34:39.929Z,24.16
2023-02-03T00:35:39.874Z,24.19
2023-02-03T00:36:42.031Z,24.22
2023-02-03T00:37:39.848Z,24.21
2023-02-03T00:38:40.268Z,24.11
2023-02-03T00:39:40.274Z,24.04
2023-02-03T00:40:39.872Z,24.06
2023-02-03T00:41:39.778Z,24.06
2023-02-03T00:42:39.849Z,24.07
2023-02-03T00:43:39.784Z,24.10
2023-02-03T00:44:39.791Z,24.11
2023-02-03T00:45:39.859Z,24.13
2023-02-03T00:46:39.928Z,24.14
2023-02-03T00:47:39.764Z,24.18
2023-02-03T00:48:39.772Z,24.19
2023-02-03T00:49:39.776Z,24.22
2023-02-03T00:50:39.729Z,24.25
2023-02-03T00:51:39.784Z,24.29
2023-02-03T00:52:39.692Z,24.29
2023-02-03T00:53:39.696Z,24.31
2023-02-03T00:54:39.675Z,24.24
2023-02-03T00:55:39.758Z,24.19
2023-02-03T00:56:39.722Z,24.18
2023-02-03T00:57:39.940Z,24.18
2023-02-03T00:58:39.633Z,24.18
2023-02-03T00:59:39.585Z,24.18
2023-02-03T01:00:39.590Z,24.19
2023-02-03T01:01:39.667Z,24.18
2023-02-03T01:02:39.712Z,24.04
2023-02-03T01:03:39.727Z,24.00
2023-02-03T01:04:39.592Z,23.96
2023-02-03T01:05:39.530Z,23.85
2023-02-03T01:06:39.591Z,23.82
2023-02-03T01:07:39.535Z,23.81
2023-02-03T01:08:39.545Z,23.76
2023-02-03T01:09:39.759Z,23.76
2023-02-03T01:10:39.765Z,23.74
2023-02-03T01:11:39.469Z,23.74
2023-02-03T01:12:39.572Z,23.74
2023-02-03T01:13:39.481Z,23.82
2023-02-03T01:14:39.454Z,23.84
2023-02-03T01:15:39.483Z,23.88
2023-02-03T01:16:39.570Z,23.95
2023-02-03T01:17:39.494Z,24.03
2023-02-03T01:18:39.415Z,24.06
2023-02-03T01:19:39.475Z,24.03
2023-02-03T01:20:39.415Z,23.94
2023-02-03T01:21:39.437Z,23.94
2023-02-03T01:22:39.394Z,23.95
2023-02-03T01:23:39.338Z,23.99
2023-02-03T01:24:39.357Z,24.00
2023-02-03T01:25:39.354Z,23.92
2023-02-03T01:26:39.322Z,23.91
2023-02-03T01:27:39.403Z,23.91
2023-02-03T01:28:39.361Z,23.89
2023-02-03T01:29:39.368Z,23.91
2023-02-03T01:30:39.953Z,23.92
2023-02-03T01:31:39.414Z,23.91
2023-02-03T01:32:39.300Z,23.91
2023-02-03T01:33:39.264Z,23.88
2023-02-03T01:34:39.275Z,23.86
2023-02-03T01:35:39.283Z,23.86
2023-02-03T01:36:39.738Z,23.84
2023-02-03T01:37:39.307Z,23.81
2023-02-03T01:38:39.199Z,23.77
2023-02-03T01:39:39.247Z,23.77
2023-02-03T01:40:39.213Z,23.77
2023-02-03T01:41:39.278Z,23.79
2023-02-03T01:42:39.264Z,23.77
2023-02-03T01:43:39.175Z,23.74
2023-02-03T01:44:39.166Z,23.74
2023-02-03T01:45:39.173Z,23.76
2023-02-03T01:46:39.150Z,23.79
2023-02-03T01:47:39.096Z,23.84
2023-02-03T01:48:39.102Z,23.86
2023-02-03T01:49:39.107Z,23.86
2023-02-03T01:50:39.110Z,23.86
2023-02-03T01:51:39.082Z,23.85
2023-02-03T01:52:39.085Z,23.88
2023-02-03T01:53:39.031Z,23.89
2023-02-03T01:54:39.041Z,23.86
2023-02-03T01:55:39.086Z,23.79
2023-02-03T01:56:39.057Z,23.77
2023-02-03T01:57:39.060Z,23.70
2023-02-03T01:58:39.007Z,23.71
2023-02-03T01:59:39.009Z,23.69
2023-02-03T02:00:38.961Z,23.71
2023-02-03T02:01:39.045Z,23.74
2023-02-03T02:02:39.102Z,23.79
2023-02-03T02:03:38.962Z,23.71
2023-02-03T02:04:40.739Z,23.73
2023-02-03T02:05:39.150Z,23.70
2023-02-03T02:06:38.903Z,23.69
2023-02-03T02:07:38.970Z,23.70
2023-02-03T02:08:38.926Z,23.66
2023-02-03T02:09:38.884Z,23.63
2023-02-03T02:10:38.889Z,23.64
2023-02-03T02:11:38.898Z,23.62
2023-02-03T02:12:38.846Z,23.58
2023-02-03T02:13:38.998Z,23.58
2023-02-03T02:14:38.908Z,23.59
2023-02-03T02:15:38.820Z,23.58
2023-02-03T02:16:38.812Z,23.59
2023-02-03T02:17:38.828Z,23.59
2023-02-03T02:18:38.786Z,23.64
2023-02-03T02:19:39.526Z,23.67
2023-02-03T02:20:38.808Z,23.70
2023-02-03T02:21:38.749Z,23.73
2023-02-03T02:22:38.953Z,23.73
2023-02-03T02:23:38.753Z,23.77
2023-02-03T02:24:38.774Z,23.79
2023-02-03T02:25:38.788Z,23.81
2023-02-03T02:26:38.787Z,23.79
2023-02-03T02:27:38.770Z,23.77
2023-02-03T02:28:38.786Z,23.79
2023-02-03T02:29:38.666Z,23.77
2023-02-03T02:30:38.908Z,23.77
2023-02-03T02:31:38.881Z,23.79
2023-02-03T02:32:38.726Z,23.77
2023-02-03T02:33:38.926Z,23.76
2023-02-03T02:34:38.628Z,23.71
2023-02-03T02:35:38.629Z,23.56
2023-02-03T02:36:38.635Z,23.39
2023-02-03T02:37:38.646Z,23.32
2023-02-03T02:38:38.647Z,23.21
2023-02-03T02:39:38.641Z,23.17
2023-02-03T02:40:38.625Z,23.16
2023-02-03T02:41:39.191Z,23.14
2023-02-03T02:42:38.580Z,23.13
2023-02-03T02:43:38.587Z,23.13
2023-02-03T02:44:38.538Z,23.17
2023-02-03T02:45:39.108Z,23.20
2023-02-03T02:46:38.607Z,23.26
2023-02-03T02:47:38.423Z,23.25
2023-02-03T02:48:38.464Z,23.26
2023-02-03T02:49:38.434Z,23.32
2023-02-03T02:50:38.532Z,23.33
2023-02-03T02:51:38.561Z,23.33
2023-02-03T02:52:38.543Z,23.33
2023-02-03T02:53:38.396Z,23.34
2023-02-03T02:54:38.367Z,23.34
2023-02-03T02:55:38.375Z,23.28
2023-02-03T02:56:38.467Z,23.29
2023-02-03T02:57:38.475Z,23.28
2023-02-03T02:58:38.456Z,23.32
2023-02-03T02:59:38.364Z,23.29
2023-02-03T03:00:38.777Z,23.28
2023-02-03T03:01:38.349Z,23.32
2023-02-03T03:02:38.405Z,23.33
2023-02-03T03:03:38.323Z,23.28
2023-02-03T03:04:38.351Z,23.28
2023-02-03T03:05:38.299Z,23.26
2023-02-03T03:06:38.344Z,23.14
2023-02-03T03:07:38.261Z,23.13
2023-02-03T03:08:38.347Z,23.11
2023-02-03T03:09:38.421Z,23.08
2023-02-03T03:10:38.234Z,22.99
2023-02-03T03:11:38.272Z,22.89
2023-02-03T03:12:38.253Z,22.83
2023-02-03T03:13:38.247Z,22.67
2023-02-03T03:14:38.281Z,22.59
2023-02-03T03:15:38.425Z,22.61
2023-02-03T03:16:38.197Z,22.53
2023-02-03T03:17:38.205Z,22.55
2023-02-03T03:18:38.208Z,22.59
2023-02-03T03:19:38.127Z,22.63
2023-02-03T03:20:38.123Z,22.71
2023-02-03T03:21:38.227Z,22.73
2023-02-03T03:22:38.093Z,22.73
2023-02-03T03:23:38.073Z,22.74
2023-02-03T03:24:38.127Z,22.73
2023-02-03T03:25:38.157Z,22.73
2023-02-03T03:26:38.125Z,22.77
2023-02-03T03:27:38.161Z,22.80
2023-02-03T03:28:38.024Z,22.80
2023-02-03T03:29:38.052Z,22.83
2023-02-03T03:30:38.046Z,22.71
2023-02-03T03:31:38.337Z,22.58
2023-02-03T03:32:38.000Z,22.52
2023-02-03T03:33:38.041Z,22.41
2023-02-03T03:34:38.093Z,22.36
2023-02-03T03:35:38.013Z,22.36
2023-02-03T03:36:38.017Z,22.37
2023-02-03T03:37:37.965Z,22.34
2023-02-03T03:38:38.004Z,22.30
2023-02-03T03:39:37.978Z,22.19
2023-02-03T03:40:37.883Z,22.19
2023-02-03T03:41:37.888Z,22.21
2023-02-03T03:42:37.937Z,22.25
2023-02-03T03:43:37.941Z,22.30
2023-02-03T03:44:37.949Z,22.33
2023-02-03T03:45:37.873Z,22.38
2023-02-03T03:46:37.827Z,22.40
2023-02-03T03:47:37.867Z,22.44
2023-02-03T03:48:37.871Z,22.49
2023-02-03T03:49:37.841Z,22.55
2023-02-03T03:50:37.854Z,22.62
2023-02-03T03:51:37.848Z,22.68
2023-02-03T03:52:37.803Z,22.73
2023-02-03T03:53:38.479Z,22.76
2023-02-03T03:54:37.770Z,22.78
2023-02-03T03:55:37.781Z,22.81
2023-02-03T03:56:37.784Z,22.77
2023-02-03T03:57:37.705Z,22.77
2023-02-03T03:58:37.695Z,22.80
2023-02-03T03:59:37.742Z,22.84
2023-02-03T04:00:37.859Z,22.86
2023-02-03T04:01:37.832Z,22.88
2023-02-03T04:02:37.888Z,22.92
2023-02-03T04:03:37.727Z,22.95
2023-02-03T04:04:37.648Z,22.98
2023-02-03T04:05:37.635Z,23.01
2023-02-03T04:06:37.682Z,23.02
2023-02-03T04:07:37.721Z,23.07
2023-02-03T04:08:37.804Z,23.07
2023-02-03T04:09:37.583Z,23.04
2023-02-03T04:10:37.645Z,23.07
2023-02-03T04:11:37.578Z,23.08
2023-02-03T04:12:37.654Z,23.07
2023-02-03T04:13:37.635Z,23.08
2023-02-03T04:14:37.591Z,23.10
2023-02-03T04:15:37.495Z,23.11
2023-02-03T04:16:37.554Z,23.11
2023-02-03T04:17:37.539Z,23.13
2023-02-03T04:18:37.549Z,23.13
2023-02-03T04:19:37.527Z,23.11
2023-02-03T04:20:37.556Z,23.06
2023-02-03T04:21:37.468Z,23.02
2023-02-03T04:22:37.504Z,23.01
2023-02-03T04:23:37.481Z,22.98
2023-02-03T04:24:37.548Z,22.95
2023-02-03T04:25:37.530Z,22.91
2023-02-03T04:26:37.564Z,22.89
2023-02-03T04:27:37.678Z,22.91
2023-02-03T04:28:37.574Z,22.91
2023-02-03T04:29:37.508Z,22.91
2023-02-03T04:30:37.571Z,22.91
2023-02-03T04:31:37.522Z,22.88
2023-02-03T04:32:37.451Z,22.91
2023-02-03T04:33:37.401Z,22.89
2023-02-03T04:34:37.449Z,22.92
2023-02-03T04:35:37.408Z,22.93
2023-02-03T04:36:37.432Z,22.93
2023-02-03T04:37:37.345Z,22.93
2023-02-03T04:38:38.284Z,22.93
2023-02-03T04:39:37.350Z,22.95
2023-02-03T04:40:37.330Z,22.88
2023-02-03T04:41:37.313Z,22.78
2023-02-03T04:42:37.291Z,22.73
2023-02-03T04:43:37.244Z,22.71
2023-02-03T04:44:37.303Z,22.70
2023-02-03T04:45:37.340Z,22.70
2023-02-03T04:46:37.229Z,22.71
2023-02-03T04:47:37.223Z,22.71
2023-02-03T04:48:37.203Z,22.67
2023-02-03T04:49:37.208Z,22.68
2023-02-03T04:50:37.239Z,22.65
2023-02-03T04:51:37.155Z,22.63
2023-02-03T04:52:37.162Z,22.58
2023-02-03T04:53:37.109Z,22.52
2023-02-03T04:54:37.159Z,22.49
2023-02-03T04:55:37.123Z,22.49
2023-02-03T04:56:37.175Z,22.46
2023-02-03T04:57:37.147Z,22.44
2023-02-03T04:58:37.159Z,22.46
2023-02-03T04:59:37.191Z,22.46
2023-02-03T05:00:37.097Z,22.44
2023-02-03T05:01:37.061Z,22.43
2023-02-03T05:02:37.066Z,22.40
2023-02-03T05:03:37.097Z,22.41
2023-02-03T05:04:36.989Z,22.40
2023-02-03T05:05:36.989Z,22.41
2023-02-03T05:06:37.032Z,22.43
2023-02-03T05:07:36.989Z,22.44
2023-02-03T05:08:36.860Z,22.46
2023-02-03T05:09:36.949Z,22.49
2023-02-03T05:10:36.916Z,22.51
2023-02-03T05:11:36.964Z,22.53
2023-02-03T05:12:37.331Z,22.58
2023-02-03T05:13:36.880Z,22.61
2023-02-03T05:14:36.876Z,22.63
2023-02-03T05:15:36.837Z,22.68
2023-02-03T05:16:36.991Z,22.68
2023-02-03T05:17:36.859Z,22.59
2023-02-03T05:18:36.903Z,22.58
2023-02-03T05:19:36.814Z,22.56
2023-02-03T05:20:36.821Z,22.47
2023-02-03T05:21:36.822Z,22.46
2023-02-03T05:22:36.833Z,22.43
2023-02-03T05:23:36.956Z,22.43
2023-02-03T05:24:36.814Z,22.43
2023-02-03T05:25:36.744Z,22.44
2023-02-03T05:26:36.800Z,22.46
2023-02-03T05:27:36.753Z,22.47
2023-02-03T05:28:36.704Z,22.47
2023-02-03T05:29:36.711Z,22.49
2023-02-03T05:30:36.741Z,22.49
2023-02-03T05:31:36.723Z,22.49
2023-02-03T05:32:36.659Z,22.53
2023-02-03T05:33:36.636Z,22.56
2023-02-03T05:34:36.647Z,22.58
2023-02-03T05:35:36.647Z,22.59
2023-02-03T05:36:36.627Z,22.56
2023-02-03T05:37:36.630Z,22.53
2023-02-03T05:38:36.735Z,22.52
2023-02-03T05:39:36.577Z,22.52
2023-02-03T05:40:36.645Z,22.52
2023-02-03T05:41:36.660Z,22.55
2023-02-03T05:42:36.562Z,22.58
2023-02-03T05:43:36.501Z,22.59
2023-02-03T05:44:36.504Z,22.61
2023-02-03T05:45:36.561Z,22.59
2023-02-03T05:46:37.356Z,22.56
2023-02-03T05:47:36.517Z,22.55
2023-02-03T05:48:36.442Z,22.51
2023-02-03T05:49:36.435Z,22.51
2023-02-03T05:50:38.606Z,22.52
2023-02-03T05:51:36.452Z,22.55
2023-02-03T05:52:36.767Z,22.52
2023-02-03T05:53:36.457Z,22.51
2023-02-03T05:54:36.371Z,22.49
2023-02-03T05:55:36.372Z,22.49
2023-02-03T05:56:36.448Z,22.51
2023-02-03T05:57:36.387Z,22.52
2023-02-03T05:58:36.806Z,22.51
2023-02-03T05:59:36.472Z,22.53
2023-02-03T06:00:36.368Z,22.56
2023-02-03T06:01:36.309Z,22.56
2023-02-03T06:02:36.330Z,22.56
2023-02-03T06:03:36.535Z,22.53
2023-02-03T06:04:36.848Z,22.53
2023-02-03T06:05:36.335Z,22.55
2023-02-03T06:06:36.248Z,22.55
2023-02-03T06:07:36.343Z,22.52
2023-02-03T06:08:36.269Z,22.56
2023-02-03T06:09:36.877Z,22.56
2023-02-03T06:10:36.263Z,22.53
2023-02-03T06:11:36.384Z,22.53
2023-02-03T06:12:36.174Z,22.55
2023-02-03T06:13:36.183Z,22.58
2023-02-03T06:14:36.314Z,22.56
2023-02-03T06:15:36.200Z,22.52
2023-02-03T06:16:36.287Z,22.51
2023-02-03T06:17:36.212Z,22.49
2023-02-03T06:18:36.122Z,22.51
2023-02-03T06:19:36.125Z,22.52
2023-02-03T06:20:36.141Z,22.55
2023-02-03T06:21:36.137Z,22.53
2023-02-03T06:22:36.155Z,22.52
2023-02-03T06:23:36.154Z,22.52
2023-02-03T06:24:36.051Z,22.53
2023-02-03T06:25:36.083Z,22.55
2023-02-03T06:26:36.077Z,22.58
2023-02-03T06:27:36.225Z,22.59
2023-02-03T06:28:36.096Z,22.55
2023-02-03T06:29:36.104Z,22.55
2023-02-03T06:30:36.166Z,22.51
2023-02-03T06:31:36.076Z,22.49
2023-02-03T06:32:36.016Z,22.47
2023-02-03T06:33:36.005Z,22.47
2023-02-03T06:34:36.019Z,22.46
2023-02-03T06:35:36.015Z,22.41
2023-02-03T06:36:35.946Z,22.41
2023-02-03T06:37:35.930Z,22.41
2023-02-03T06:38:35.973Z,22.41
2023-02-03T06:39:35.956Z,22.41
2023-02-03T06:40:35.950Z,22.41
2023-02-03T06:41:36.033Z,22.37
2023-02-03T06:42:35.890Z,22.38
2023-02-03T06:43:35.882Z,22.38
2023-02-03T06:44:35.891Z,22.38
2023-02-03T06:45:35.887Z,22.38
2023-02-03T06:46:35.932Z,22.37
2023-02-03T06:47:35.873Z,22.38
2023-02-03T06:48:35.815Z,22.36
2023-02-03T06:49:35.931Z,22.28
2023-02-03T06:50:35.828Z,22.26
2023-02-03T06:51:35.833Z,22.22
2023-02-03T06:52:35.918Z,22.22
2023-02-03T06:53:35.803Z,22.22
2023-02-03T06:54:35.809Z,22.23
2023-02-03T06:55:35.756Z,22.23
2023-02-03T06:56:35.799Z,22.26
2023-02-03T06:57:35.760Z,22.28
2023-02-03T06:58:35.782Z,22.31
2023-02-03T06:59:35.787Z,22.33
2023-02-03T07:00:35.697Z,22.36
2023-02-03T07:01:35.767Z,22.37
2023-02-03T07:02:35.741Z,22.37
2023-02-03T07:03:35.706Z,22.37
2023-02-03T07:04:35.719Z,22.37
2023-02-03T07:05:35.701Z,22.37
2023-02-03T07:06:35.620Z,22.37
2023-02-03T07:07:35.635Z,22.37
2023-02-03T07:08:35.634Z,22.38
2023-02-03T07:09:35.651Z,22.38
2023-02-03T07:10:35.666Z,22.40
2023-02-03T07:11:35.615Z,22.43
2023-02-03T07:12:35.568Z,22.41
2023-02-03T07:13:35.639Z,22.43
2023-02-03T07:14:35.577Z,22.43
2023-02-03T07:15:35.973Z,22.43
2023-02-03T07:16:35.657Z,22.44
2023-02-03T07:17:36.045Z,22.46
2023-02-03T07:18:46.927Z,22.46
2023-02-03T07:19:35.507Z,22.44
2023-02-03T07:20:35.511Z,22.43
2023-02-03T07:21:35.917Z,22.44
2023-02-03T07:22:35.491Z,22.46
2023-02-03T07:23:35.431Z,22.49
2023-02-03T07:24:35.442Z,22.49
2023-02-03T07:25:35.502Z,22.52
2023-02-03T07:26:35.421Z,22.53
2023-02-03T07:27:35.462Z,22.53
2023-02-03T07:28:35.403Z,22.55
2023-02-03T07:29:35.375Z,22.55
2023-02-03T07:30:35.379Z,22.56
2023-02-03T07:31:35.505Z,22.58
2023-02-03T07:32:35.393Z,22.61
2023-02-03T07:33:35.874Z,22.58
2023-02-03T07:34:35.430Z,22.58
2023-02-03T07:35:35.388Z,22.56
2023-02-03T07:36:35.424Z,22.58
2023-02-03T07:37:35.406Z,22.58
2023-02-03T07:38:35.366Z,22.56
2023-02-03T07:39:35.348Z,22.56
2023-02-03T07:40:35.381Z,22.56
2023-02-03T07:41:35.323Z,22.56
2023-02-03T07:42:35.339Z,22.58
2023-02-03T07:43:35.314Z,22.59
2023-02-03T07:44:35.296Z,22.61
2023-02-03T07:45:35.311Z,22.61
2023-02-03T07:46:35.387Z,22.58
2023-02-03T07:47:35.284Z,22.55
2023-02-03T07:48:35.294Z,22.53
2023-02-03T07:49:35.247Z,22.55
2023-02-03T07:50:35.275Z,22.55
2023-02-03T07:51:35.251Z,22.52
2023-02-03T07:52:35.257Z,22.46
2023-02-03T07:53:35.205Z,22.41
2023-02-03T07:54:35.216Z,22.36
2023-02-03T07:55:35.214Z,22.36
2023-02-03T07:56:35.193Z,22.34
2023-02-03T07:57:35.203Z,22.36
2023-02-03T07:58:35.198Z,22.37
2023-02-03T07:59:35.156Z,22.38
2023-02-03T08:00:35.158Z,22.41
2023-02-03T08:01:35.146Z,22.44
2023-02-03T08:02:35.119Z,22.47
2023-02-03T08:03:35.137Z,22.49
2023-02-03T08:04:35.156Z,22.51
2023-02-03T08:05:35.074Z,22.46
2023-02-03T08:06:35.094Z,22.43
2023-02-03T08:07:35.056Z,22.44
2023-02-03T08:08:35.108Z,22.43
2023-02-03T08:09:35.008Z,22.46
2023-02-03T08:10:35.023Z,22.46
2023-02-03T08:11:35.044Z,22.43
2023-02-03T08:12:35.026Z,22.40
2023-02-03T08:13:34.996Z,22.40
2023-02-03T08:14:35.001Z,22.41
2023-02-03T08:15:35.008Z,22.44
2023-02-03T08:16:35.039Z,22.46
2023-02-03T08:17:34.966Z,22.49
2023-02-03T08:18:34.982Z,22.51
2023-02-03T08:19:34.891Z,22.51
2023-02-03T08:20:34.948Z,22.49
2023-02-03T08:21:34.899Z,22.47
2023-02-03T08:22:34.897Z,22.49
2023-02-03T08:23:34.916Z,22.49
2023-02-03T08:24:35.422Z,22.51
2023-02-03T08:25:34.890Z,22.53
2023-02-03T08:26:34.882Z,22.52
2023-02-03T08:27:34.894Z,22.49
2023-02-03T08:28:34.848Z,22.49
2023-02-03T08:29:34.842Z,22.47
2023-02-03T08:30:34.898Z,22.49
2023-02-03T08:31:34.913Z,22.51
2023-02-03T08:32:34.821Z,22.52
2023-02-03T08:33:34.765Z,22.53
2023-02-03T08:34:34.740Z,22.55
2023-02-03T08:35:34.856Z,22.49
2023-02-03T08:36:34.799Z,22.46
2023-02-03T08:37:34.688Z,22.43
2023-02-03T08:38:34.704Z,22.44
2023-02-03T08:39:34.720Z,22.44
2023-02-03T08:40:34.770Z,22.44
2023-02-03T08:41:34.770Z,22.46
2023-02-03T08:42:34.621Z,22.47
2023-02-03T08:43:34.681Z,22.47
2023-02-03T08:44:34.696Z,22.49
2023-02-03T08:45:34.728Z,22.49
2023-02-03T08:46:34.602Z,22.47
2023-02-03T08:47:34.551Z,22.49
2023-02-03T08:48:34.581Z,22.49
2023-02-03T08:49:34.567Z,22.49
2023-02-03T08:50:34.879Z,22.51
2023-02-03T08:51:34.584Z,22.51
2023-02-03T08:52:34.590Z,22.52
2023-02-03T08:53:34.494Z,22.52
2023-02-03T08:54:34.571Z,22.52
2023-02-03T08:55:34.536Z,22.52
2023-02-03T08:56:34.538Z,22.47
2023-02-03T08:57:34.485Z,22.46
2023-02-03T08:58:34.494Z,22.47
2023-02-03T08:59:34.457Z,22.51
2023-02-03T09:00:34.482Z,22.49
2023-02-03T09:01:34.467Z,22.49
2023-02-03T09:02:34.512Z,22.46
2023-02-03T09:03:34.508Z,22.36
2023-02-03T09:04:34.492Z,22.28
2023-02-03T09:05:34.446Z,22.23
2023-02-03T09:06:34.401Z,22.23
2023-02-03T09:07:34.424Z,22.23
2023-02-03T09:08:34.386Z,22.22
2023-02-03T09:09:35.138Z,22.16
2023-02-03T09:10:34.322Z,22.10
2023-02-03T09:11:34.267Z,22.07
2023-02-03T09:12:34.336Z,22.07
2023-02-03T09:13:34.286Z,22.10
2023-02-03T09:14:34.312Z,22.14
2023-02-03T09:15:34.327Z,22.16
2023-02-03T09:16:34.304Z,22.18
2023-02-03T09:17:34.229Z,22.22
2023-02-03T09:18:34.237Z,22.28
2023-02-03T09:19:36.343Z,22.34
2023-02-03T09:20:34.282Z,22.37
2023-02-03T09:21:36.306Z,22.40
2023-02-03T09:22:34.166Z,22.40
2023-02-03T09:23:34.243Z,22.41
2023-02-03T09:24:34.211Z,22.43
2023-02-03T09:25:34.239Z,22.44
2023-02-03T09:26:34.246Z,22.41
2023-02-03T09:27:34.204Z,22.41
2023-02-03T09:28:34.175Z,22.41
2023-02-03T09:29:34.109Z,22.44
2023-02-03T09:30:34.201Z,22.49
2023-02-03T09:31:34.211Z,22.51
2023-02-03T09:32:34.167Z,22.52
2023-02-03T09:33:34.034Z,22.55
2023-02-03T09:34:34.109Z,22.52
2023-02-03T09:35:34.086Z,22.53
2023-02-03T09:36:34.097Z,22.52
2023-02-03T09:37:34.101Z,22.53
2023-02-03T09:38:34.109Z,22.51
2023-02-03T09:39:34.046Z,22.46
2023-02-03T09:40:34.249Z,22.47
2023-02-03T09:41:34.058Z,22.47
2023-02-03T09:42:34.040Z,22.49
2023-02-03T09:43:34.029Z,22.49
2023-02-03T09:44:34.066Z,22.49
2023-02-03T09:45:34.007Z,22.51
2023-02-03T09:46:33.954Z,22.51
2023-02-03T09:47:33.989Z,22.49
2023-02-03T09:48:33.966Z,22.47
2023-02-03T09:49:33.971Z,22.40
2023-02-03T09:50:34.652Z,22.37
2023-02-03T09:51:33.892Z,22.36
2023-02-03T09:52:33.852Z,22.37
2023-02-03T09:53:33.922Z,22.38
2023-02-03T09:54:33.910Z,22.38
2023-02-03T09:55:33.976Z,22.40
2023-02-03T09:56:33.921Z,22.40
2023-02-03T09:57:33.957Z,22.38
2023-02-03T09:58:33.840Z,22.36
2023-02-03T09:59:33.861Z,22.36
2023-02-03T10:00:33.797Z,22.37
2023-02-03T10:01:33.911Z,22.38
2023-02-03T10:02:33.978Z,22.38
2023-02-03T10:03:33.770Z,22.40
2023-02-03T10:04:33.900Z,22.41
2023-02-03T10:05:33.719Z,22.43
2023-02-03T10:06:33.815Z,22.43
2023-02-03T10:07:33.793Z,22.41
2023-02-03T10:08:34.041Z,22.41
2023-02-03T10:09:33.744Z,22.40
2023-02-03T10:10:33.762Z,22.43
2023-02-03T10:11:33.729Z,22.44
2023-02-03T10:12:33.958Z,22.44
2023-02-03T10:13:33.751Z,22.47
2023-02-03T10:14:33.955Z,22.53
2023-02-03T10:15:33.682Z,22.56
2023-02-03T10:16:33.716Z,22.58
2023-02-03T10:17:33.677Z,22.61
2023-02-03T10:18:33.611Z,22.58
2023-02-03T10:19:33.699Z,22.56
2023-02-03T10:20:34.107Z,22.53
2023-02-03T10:21:33.585Z,22.52
2023-02-03T10:22:33.586Z,22.52
2023-02-03T10:23:33.638Z,22.51
2023-02-03T10:24:33.633Z,22.52
2023-02-03T10:25:33.639Z,22.52
2023-02-03T10:26:34.028Z,22.52
2023-02-03T10:27:33.543Z,22.53
2023-02-03T10:28:33.534Z,22.53
2023-02-03T10:29:33.469Z,22.53
2023-02-03T10:30:34.086Z,22.56
2023-02-03T10:31:33.665Z,22.56
2023-02-03T10:32:33.952Z,22.56
2023-02-03T10:33:33.481Z,22.61
2023-02-03T10:34:33.490Z,22.61
2023-02-03T10:35:33.600Z,22.63
2023-02-03T10:36:33.462Z,22.68
2023-02-03T10:37:33.530Z,22.71
2023-02-03T10:38:33.421Z,22.70
2023-02-03T10:39:33.374Z,22.65
2023-02-03T10:40:33.427Z,22.61
2023-02-03T10:41:33.496Z,22.58
2023-02-03T10:42:33.338Z,22.55
2023-02-03T10:43:33.448Z,22.56
2023-02-03T10:44:33.403Z,22.56
2023-02-03T10:45:33.413Z,22.56
2023-02-03T10:46:33.470Z,22.59
2023-02-03T10:47:33.375Z,22.62
2023-02-03T10:48:33.277Z,22.65
2023-02-03T10:49:33.373Z,22.67
2023-02-03T10:50:33.344Z,22.68
2023-02-03T10:51:33.297Z,22.65
2023-02-03T10:52:33.262Z,22.68
2023-02-03T10:53:33.223Z,22.70
2023-02-03T10:54:33.331Z,22.73
2023-02-03T10:55:33.296Z,22.74
2023-02-03T10:56:33.225Z,22.77
2023-02-03T10:57:33.203Z,22.77
2023-02-03T10:58:33.200Z,22.80
2023-02-03T10:59:33.155Z,22.81
2023-02-03T11:00:33.224Z,22.83
2023-02-03T11:01:33.203Z,22.81
2023-02-03T11:02:33.246Z,22.78
2023-02-03T11:03:33.136Z,22.77
2023-02-03T11:04:33.163Z,22.77
2023-02-03T11:05:33.228Z,22.76
2023-02-03T11:06:33.103Z,22.74
2023-02-03T11:07:33.148Z,22.73
2023-02-03T11:08:33.105Z,22.76
2023-02-03T11:09:33.064Z,22.76
2023-02-03T11:10:33.078Z,22.76
2023-02-03T11:11:33.041Z,22.76
2023-02-03T11:12:33.033Z,22.76
2023-02-03T11:13:33.026Z,22.74
2023-02-03T11:14:33.036Z,22.76
2023-02-03T11:15:33.143Z,22.76
2023-02-03T11:16:33.970Z,22.76
2023-02-03T11:17:33.017Z,22.78
2023-02-03T11:18:32.988Z,22.83
2023-02-03T11:19:33.093Z,22.86
2023-02-03T11:20:32.983Z,22.89
2023-02-03T11:21:32.990Z,22.89
2023-02-03T11:22:32.968Z,22.95
2023-02-03T11:23:33.050Z,22.96
2023-02-03T11:24:32.962Z,22.99
2023-02-03T11:25:33.072Z,23.04
2023-02-03T11:26:32.867Z,23.04
2023-02-03T11:27:33.075Z,23.07
2023-02-03T11:28:33.488Z,23.10
2023-02-03T11:29:32.882Z,23.14
2023-02-03T11:30:32.841Z,23.17
2023-02-03T11:31:33.166Z,23.21
2023-02-03T11:32:32.914Z,23.23
2023-02-03T11:33:32.815Z,23.23
2023-02-03T11:34:32.779Z,23.21
2023-02-03T11:35:32.933Z,23.18
2023-02-03T11:36:32.863Z,23.21
2023-02-03T11:37:34.634Z,23.26
2023-02-03T11:38:32.807Z,23.28
2023-02-03T11:39:32.764Z,23.32
2023-02-03T11:40:32.768Z,23.36
2023-02-03T11:41:32.725Z,23.39
2023-02-03T11:42:32.956Z,23.44
2023-02-03T11:43:32.768Z,23.48
2023-02-03T11:44:33.415Z,23.51
2023-02-03T11:45:32.692Z,23.56
2023-02-03T11:46:32.904Z,23.59
2023-02-03T11:47:32.662Z,23.59
2023-02-03T11:48:32.672Z,23.55
2023-02-03T11:49:32.731Z,23.52
2023-02-03T11:50:32.631Z,23.48
2023-02-03T11:51:32.630Z,23.51
2023-02-03T11:52:32.703Z,23.54
2023-02-03T11:53:32.616Z,23.59
2023-02-03T11:54:32.623Z,23.66
2023-02-03T11:55:33.001Z,23.70
2023-02-03T11:56:32.574Z,23.71
2023-02-03T11:57:32.571Z,23.70
2023-02-03T11:58:32.684Z,23.69
2023-02-03T11:59:32.546Z,23.70
2023-02-03T12:00:32.548Z,23.70
2023-02-03T12:01:33.000Z,23.71
2023-02-03T12:02:32.583Z,23.73
2023-02-03T12:03:32.831Z,23.73
2023-02-03T12:04:32.496Z,23.70
2023-02-03T12:05:32.483Z,23.66
2023-02-03T12:06:32.456Z,23.63
2023-02-03T12:07:32.465Z,23.62
2023-02-03T12:08:32.442Z,23.63
2023-02-03T12:09:32.410Z,23.64
2023-02-03T12:10:32.425Z,23.63
2023-02-03T12:11:32.395Z,23.64
2023-02-03T12:12:32.393Z,23.64
2023-02-03T12:13:32.475Z,23.69
2023-02-03T12:14:33.202Z,23.71
2023-02-03T12:15:32.498Z,23.74
2023-02-03T12:16:32.552Z,23.74
2023-02-03T12:17:32.417Z,23.73
2023-02-03T12:18:32.361Z,23.73
2023-02-03T12:19:32.345Z,23.74
2023-02-03T12:20:33.272Z,23.77
2023-02-03T12:21:32.563Z,23.81
2023-02-03T12:22:32.565Z,23.76
2023-02-03T12:23:32.267Z,23.76
2023-02-03T12:24:32.261Z,23.74
2023-02-03T12:25:32.347Z,23.74
2023-02-03T12:26:32.287Z,23.76
2023-02-03T12:27:32.289Z,23.76
2023-02-03T12:28:33.999Z,23.74
2023-02-03T12:29:32.578Z,23.70
2023-02-03T12:30:32.591Z,23.66
2023-02-03T12:31:32.301Z,23.66
2023-02-03T12:32:32.218Z,23.69
2023-02-03T12:33:32.122Z,23.69
2023-02-03T12:34:32.207Z,23.74
2023-02-03T12:35:32.216Z,23.79
2023-02-03T12:36:32.212Z,23.77
2023-02-03T12:37:32.156Z,23.82
2023-02-03T12:38:32.110Z,23.84
2023-02-03T12:39:32.072Z,23.81
2023-02-03T12:40:32.060Z,23.82
2023-02-03T12:41:32.079Z,23.85
2023-02-03T12:42:32.083Z,23.89
2023-02-03T12:43:32.088Z,23.92
2023-02-03T12:44:32.180Z,23.91
2023-02-03T12:45:32.050Z,23.91
2023-02-03T12:46:32.031Z,23.92
2023-02-03T12:47:32.047Z,23.95
2023-02-03T12:48:32.019Z,24.01
2023-02-03T12:49:32.031Z,24.07
2023-02-03T12:50:32.009Z,24.07
2023-02-03T12:51:31.995Z,24.07
2023-02-03T12:52:31.942Z,24.04